Time;durP1;ratioP1;P1;durP2;ratioP2;P2;SDS_P1;SDS_P2;PMS_P1;PMS_P2;Temp;Humidity;BMP_temperature;BMP_pressure;BME280_temperature;BME280_humidity;BME280_pressure;Samples;Min_cycle;Max_cycle;Signal;HPM_P1;HPM_P2
2023/06/13 00:01:12;;;;;;;6.55;3.53;;;;;;;;;;5047465;28;20145;-71
2023/06/13 00:03:57;;;;;;;7.85;3.78;;;;;;;;;;5052445;28;20040;-71
2023/06/13 00:06:42;;;;;;;4.95;3.50;;;;;;;;;;5045947;28;20462;-75
2023/06/13 00:09:28;;;;;;;5.07;3.40;;;;;;;;;;5042174;28;20064;-75
2023/06/13 00:12:14;;;;;;;6.05;4.05;;;;;;;;;;5052022;28;20033;-74
2023/06/13 00:15:01;;;;;;;4.88;3.58;;;;;;;;;;5048239;28;20074;-74
2023/06/13 00:17:47;;;;;;;6.97;3.25;;;;;;;;;;5055309;28;20120;-74
2023/06/13 00:20:34;;;;;;;5.70;3.35;;;;;;;;;;5030212;28;20130;-74
2023/06/13 00:23:20;;;;;;;5.85;3.22;;;;;;;;;;5053144;28;20032;-61
2023/06/13 00:26:05;;;;;;;6.65;3.63;;;;;;;;;;5049775;28;20031;-63
2023/06/13 00:28:52;;;;;;;5.22;3.35;;;;;;;;;;5053363;28;20055;-64
2023/06/13 00:31:37;;;;;;;4.43;3.15;;;;;;;;;;5046251;28;20036;-65
2023/06/13 00:34:22;;;;;;;5.88;3.50;;;;;;;;;;5056267;28;20059;-66
2023/06/13 00:37:13;;;;;;;4.72;3.05;;;;;;;;;;5060610;28;20117;-65
2023/06/13 00:39:58;;;;;;;5.90;3.45;;;;;;;;;;5049536;28;20489;-63
2023/06/13 00:42:43;;;;;;;6.38;3.78;;;;;;;;;;5053635;28;20028;-74
2023/06/13 00:45:29;;;;;;;7.53;3.97;;;;;;;;;;5051644;28;20591;-64
2023/06/13 00:48:14;;;;;;;5.22;3.42;;;;;;;;;;5052651;28;20021;-65
2023/06/13 00:51:02;;;;;;;5.60;3.33;;;;;;;;;;5050029;28;20123;-65
2023/06/13 00:53:48;;;;;;;7.85;4.05;;;;;;;;;;5055540;28;20584;-62
2023/06/13 00:56:34;;;;;;;7.75;3.78;;;;;;;;;;5050717;28;20032;-64
2023/06/13 00:59:20;;;;;;;8.38;3.50;;;;;;;;;;5039382;28;20032;-70
2023/06/13 01:02:05;;;;;;;3.78;3.03;;;;;;;;;;5052672;28;20425;-63
2023/06/13 01:04:51;;;;;;;9.82;3.60;;;;;;;;;;5056081;28;20032;-63
2023/06/13 01:07:39;;;;;;;5.88;3.67;;;;;;;;;;5036655;28;20100;-62
2023/06/13 01:10:27;;;;;;;10.20;4.03;;;;;;;;;;5038013;28;20079;-62
2023/06/13 01:13:18;;;;;;;8.05;3.50;;;;;;;;;;5048069;28;20038;-63
2023/06/13 01:16:08;;;;;;;7.10;3.33;;;;;;;;;;5046767;28;20029;-62
2023/06/13 01:18:55;;;;;;;6.30;3.38;;;;;;;;;;5049740;28;20035;-66
2023/06/13 01:21:41;;;;;;;6.63;3.70;;;;;;;;;;5042569;28;20037;-67
2023/06/13 01:24:41;;;;;;;7.35;3.65;;;;;;;;;;5047382;28;20461;-67
2023/06/13 01:27:28;;;;;;;5.50;3.00;;;;;;;;;;5063171;28;20044;-67
2023/06/13 01:30:14;;;;;;;6.72;4.00;;;;;;;;;;5045892;28;20119;-66
2023/06/13 01:33:00;;;;;;;5.60;3.47;;;;;;;;;;5044307;28;20024;-67
2023/06/13 01:35:46;;;;;;;5.55;3.45;;;;;;;;;;5047936;28;20029;-70
2023/06/13 01:38:31;;;;;;;7.05;3.90;;;;;;;;;;5041711;28;20041;-73
2023/06/13 01:41:17;;;;;;;7.40;3.70;;;;;;;;;;5039951;28;20035;-74
2023/06/13 01:44:03;;;;;;;6.20;3.28;;;;;;;;;;5055558;28;20471;-74
2023/06/13 01:47:05;;;;;;;6.68;3.85;;;;;;;;;;5044663;28;20234;-73
2023/06/13 01:50:10;;;;;;;6.95;3.72;;;;;;;;;;5044636;28;20275;-73
2023/06/13 01:52:56;;;;;;;6.75;3.33;;;;;;;;;;5046206;28;20029;-72
2023/06/13 01:55:47;;;;;;;6.53;3.72;;;;;;;;;;5055739;28;20040;-70
2023/06/13 01:58:40;;;;;;;9.25;4.03;;;;;;;;;;5052423;28;20044;-62
2023/06/13 02:01:30;;;;;;;6.40;3.70;;;;;;;;;;5054326;28;20041;-62
2023/06/13 02:04:16;;;;;;;5.72;3.47;;;;;;;;;;5049376;28;20111;-65
2023/06/13 02:07:03;;;;;;;6.32;3.33;;;;;;;;;;5051875;28;20115;-63
2023/06/13 02:09:48;;;;;;;5.47;3.30;;;;;;;;;;5050384;28;20028;-62
2023/06/13 02:12:33;;;;;;;5.32;3.17;;;;;;;;;;5060886;28;20021;-69
2023/06/13 02:15:19;;;;;;;7.05;3.13;;;;;;;;;;5056406;28;20551;-67
2023/06/13 02:18:04;;;;;;;5.82;3.53;;;;;;;;;;5047622;28;20550;-64
2023/06/13 02:20:49;;;;;;;5.45;3.45;;;;;;;;;;5043200;28;20025;-65
2023/06/13 02:23:35;;;;;;;7.03;3.05;;;;;;;;;;5049033;28;20025;-65
2023/06/13 02:26:23;;;;;;;7.07;3.47;;;;;;;;;;5046964;28;20033;-66
2023/06/13 02:29:08;;;;;;;5.25;3.25;;;;;;;;;;5049576;28;20475;-66
2023/06/13 02:31:53;;;;;;;4.47;3.33;;;;;;;;;;5050677;28;20436;-62
2023/06/13 02:34:38;;;;;;;6.55;3.50;;;;;;;;;;5052380;28;20024;-66
2023/06/13 02:37:24;;;;;;;7.43;3.88;;;;;;;;;;5040496;28;20502;-67
2023/06/13 02:40:09;;;;;;;9.50;4.00;;;;;;;;;;5045357;28;20513;-67
2023/06/13 02:42:54;;;;;;;7.18;3.75;;;;;;;;;;5053285;28;20037;-66
2023/06/13 02:45:40;;;;;;;5.40;3.50;;;;;;;;;;5035578;28;20573;-66
2023/06/13 02:48:25;;;;;;;4.95;3.38;;;;;;;;;;5035517;28;20037;-66
2023/06/13 02:51:11;;;;;;;5.78;3.45;;;;;;;;;;5049478;28;21361;-74
2023/06/13 02:53:56;;;;;;;5.53;3.30;;;;;;;;;;5057891;28;20048;-65
2023/06/13 02:56:42;;;;;;;5.55;3.53;;;;;;;;;;5037524;28;20063;-65
2023/06/13 02:59:27;;;;;;;4.63;3.40;;;;;;;;;;5041502;28;20439;-65
2023/06/13 03:02:12;;;;;;;7.30;4.30;;;;;;;;;;5052565;28;20035;-65
2023/06/13 03:04:57;;;;;;;6.65;3.28;;;;;;;;;;5039646;28;20032;-65
2023/06/13 03:07:46;;;;;;;5.75;3.33;;;;;;;;;;5057968;28;20080;-61
2023/06/13 03:10:32;;;;;;;5.38;2.88;;;;;;;;;;5045711;28;20051;-72
2023/06/13 03:13:18;;;;;;;8.85;3.40;;;;;;;;;;5043651;28;20086;-73
2023/06/13 03:16:04;;;;;;;7.80;3.90;;;;;;;;;;5043793;28;20099;-74
2023/06/13 03:18:50;;;;;;;6.72;3.53;;;;;;;;;;5053404;28;20028;-73
2023/06/13 03:21:35;;;;;;;6.60;3.65;;;;;;;;;;5043483;28;20037;-73
2023/06/13 03:24:20;;;;;;;6.90;4.00;;;;;;;;;;5034833;28;20036;-74
2023/06/13 03:27:06;;;;;;;8.15;4.07;;;;;;;;;;5056144;28;20024;-63
2023/06/13 03:29:51;;;;;;;4.88;3.10;;;;;;;;;;5047061;28;20027;-65
2023/06/13 03:32:36;;;;;;;5.68;3.58;;;;;;;;;;5051895;28;20495;-65
2023/06/13 03:35:22;;;;;;;7.90;4.20;;;;;;;;;;5051560;28;20109;-65
2023/06/13 03:38:07;;;;;;;8.90;3.55;;;;;;;;;;5037793;28;20024;-64
2023/06/13 03:40:52;;;;;;;7.40;3.63;;;;;;;;;;5046480;28;20094;-63
2023/06/13 03:43:37;;;;;;;5.05;3.33;;;;;;;;;;5049510;28;20049;-65
2023/06/13 03:46:23;;;;;;;6.88;4.28;;;;;;;;;;5048988;28;20190;-67
2023/06/13 03:49:08;;;;;;;5.95;3.03;;;;;;;;;;5041392;28;20044;-67
2023/06/13 03:51:53;;;;;;;5.22;3.55;;;;;;;;;;5053809;28;20035;-66
2023/06/13 03:54:38;;;;;;;4.88;2.97;;;;;;;;;;5063357;28;20481;-67
2023/06/13 03:57:24;;;;;;;6.18;3.13;;;;;;;;;;5051159;28;20036;-67
2023/06/13 04:00:10;;;;;;;6.40;2.90;;;;;;;;;;5069543;28;20489;-68
2023/06/13 04:02:57;;;;;;;5.22;2.95;;;;;;;;;;5057666;28;20035;-67
2023/06/13 04:05:42;;;;;;;5.30;3.05;;;;;;;;;;5046006;28;20466;-62
2023/06/13 04:08:27;;;;;;;5.15;3.28;;;;;;;;;;5053707;28;20027;-65
2023/06/13 04:11:12;;;;;;;7.65;3.60;;;;;;;;;;5059086;28;20478;-68
2023/06/13 04:13:58;;;;;;;4.05;2.90;;;;;;;;;;5051079;28;20107;-66
2023/06/13 04:16:44;;;;;;;5.47;3.33;;;;;;;;;;5037133;28;20367;-64
2023/06/13 04:19:29;;;;;;;6.50;3.45;;;;;;;;;;5053525;28;20229;-67
2023/06/13 04:22:16;;;;;;;5.43;2.92;;;;;;;;;;5077174;28;20039;-68
2023/06/13 04:25:01;;;;;;;5.65;2.92;;;;;;;;;;5064474;28;20034;-65
2023/06/13 04:27:48;;;;;;;4.78;3.05;;;;;;;;;;5061228;28;20032;-65
2023/06/13 04:30:33;;;;;;;5.22;2.80;;;;;;;;;;5052630;28;20050;-64
2023/06/13 04:33:19;;;;;;;8.48;3.33;;;;;;;;;;5048310;28;20107;-65
2023/06/13 04:36:05;;;;;;;10.70;4.78;;;;;;;;;;5046809;28;20016;-66
2023/06/13 04:38:53;;;;;;;7.38;2.90;;;;;;;;;;5049666;28;20536;-64
2023/06/13 04:41:38;;;;;;;9.48;3.38;;;;;;;;;;5052806;28;20031;-66
2023/06/13 04:44:25;;;;;;;7.05;2.92;;;;;;;;;;5058807;28;20032;-66
2023/06/13 04:47:10;;;;;;;4.47;2.83;;;;;;;;;;5055170;28;20137;-67
2023/06/13 04:49:58;;;;;;;8.40;3.42;;;;;;;;;;5054162;28;20077;-66
2023/06/13 04:52:43;;;;;;;6.45;2.80;;;;;;;;;;5058298;28;20344;-66
2023/06/13 04:55:32;;;;;;;9.10;3.15;;;;;;;;;;5045833;28;20041;-66
2023/06/13 04:58:18;;;;;;;6.85;2.90;;;;;;;;;;5037522;28;20040;-65
2023/06/13 05:01:03;;;;;;;8.93;3.78;;;;;;;;;;5056524;28;20505;-65
2023/06/13 05:03:51;;;;;;;6.95;2.95;;;;;;;;;;5049349;28;20036;-64
2023/06/13 05:06:37;;;;;;;7.35;2.90;;;;;;;;;;5046686;28;20021;-65
2023/06/13 05:09:22;;;;;;;7.18;3.28;;;;;;;;;;5056454;28;20040;-65
2023/06/13 05:12:08;;;;;;;9.80;3.05;;;;;;;;;;5057426;28;20068;-63
2023/06/13 05:14:54;;;;;;;3.90;2.33;;;;;;;;;;5041768;28;20043;-67
2023/06/13 05:17:39;;;;;;;4.40;2.83;;;;;;;;;;5056615;28;20044;-70
2023/06/13 05:20:26;;;;;;;5.80;3.10;;;;;;;;;;5065472;28;20029;-69
2023/06/13 05:23:13;;;;;;;4.72;2.90;;;;;;;;;;5038716;28;20048;-69
2023/06/13 05:25:58;;;;;;;5.47;3.15;;;;;;;;;;5048285;28;20048;-72
2023/06/13 05:28:43;;;;;;;6.32;3.42;;;;;;;;;;5039206;28;20361;-75
2023/06/13 05:31:29;;;;;;;6.15;3.17;;;;;;;;;;5039475;28;20068;-75
2023/06/13 05:34:14;;;;;;;6.65;3.08;;;;;;;;;;5059124;28;20028;-66
2023/06/13 05:37:00;;;;;;;13.85;3.00;;;;;;;;;;5049087;28;20032;-62
2023/06/13 05:39:45;;;;;;;5.72;2.80;;;;;;;;;;5053858;28;20446;-64
2023/06/13 05:42:31;;;;;;;5.28;2.47;;;;;;;;;;5042526;28;20138;-67
2023/06/13 05:45:16;;;;;;;3.15;2.38;;;;;;;;;;5039687;28;20486;-66
2023/06/13 05:48:02;;;;;;;4.25;2.30;;;;;;;;;;5039871;28;20033;-66
2023/06/13 05:50:47;;;;;;;7.18;2.85;;;;;;;;;;5049702;28;20037;-66
2023/06/13 05:53:32;;;;;;;5.22;2.95;;;;;;;;;;5041479;28;20041;-64
2023/06/13 05:56:17;;;;;;;6.72;2.55;;;;;;;;;;5046006;28;20562;-64
2023/06/13 05:59:03;;;;;;;6.43;3.03;;;;;;;;;;5055493;28;20043;-64
2023/06/13 06:01:49;;;;;;;3.80;2.38;;;;;;;;;;5054841;28;20025;-64
2023/06/13 06:04:34;;;;;;;4.07;2.60;;;;;;;;;;5044583;28;20071;-64
2023/06/13 06:07:19;;;;;;;6.57;2.60;;;;;;;;;;5046002;28;20082;-65
2023/06/13 06:10:05;;;;;;;6.60;2.85;;;;;;;;;;5053153;28;20043;-62
2023/06/13 06:12:50;;;;;;;5.25;2.90;;;;;;;;;;5064723;28;20082;-65
2023/06/13 06:15:35;;;;;;;5.85;2.47;;;;;;;;;;5052563;28;20032;-66
2023/06/13 06:18:22;;;;;;;5.10;2.60;;;;;;;;;;5052128;28;20032;-64
2023/06/13 06:21:07;;;;;;;8.15;2.72;;;;;;;;;;5049563;28;20036;-65
2023/06/13 06:23:52;;;;;;;5.05;2.30;;;;;;;;;;5068420;28;20024;-62
2023/06/13 06:26:37;;;;;;;5.82;2.88;;;;;;;;;;5055094;28;20039;-67
2023/06/13 06:29:23;;;;;;;4.68;2.63;;;;;;;;;;5041920;28;20439;-68
2023/06/13 06:32:08;;;;;;;5.05;2.80;;;;;;;;;;5051269;28;20051;-73
2023/06/13 06:34:54;;;;;;;4.30;2.67;;;;;;;;;;5054836;28;20046;-64
2023/06/13 06:37:40;;;;;;;3.75;2.45;;;;;;;;;;5050701;28;20384;-66
2023/06/13 06:40:25;;;;;;;3.63;2.55;;;;;;;;;;5037728;28;20178;-64
2023/06/13 06:43:10;;;;;;;6.45;2.42;;;;;;;;;;5044290;28;20025;-65
2023/06/13 06:45:57;;;;;;;4.50;2.70;;;;;;;;;;5046665;28;20027;-65
2023/06/13 06:48:42;;;;;;;4.75;3.00;;;;;;;;;;5063696;28;20222;-64
2023/06/13 06:51:27;;;;;;;6.32;2.72;;;;;;;;;;5055693;28;20032;-64
2023/06/13 06:54:13;;;;;;;8.57;3.25;;;;;;;;;;5053029;28;20029;-64
2023/06/13 06:56:58;;;;;;;7.45;2.70;;;;;;;;;;5033140;28;20051;-64
2023/06/13 06:59:44;;;;;;;2.80;2.28;;;;;;;;;;5040898;28;20507;-68
2023/06/13 07:02:30;;;;;;;6.97;2.67;;;;;;;;;;5049008;28;20790;-64
2023/06/13 07:05:18;;;;;;;5.13;2.80;;;;;;;;;;5041308;28;20041;-64
2023/06/13 07:08:03;;;;;;;5.10;2.88;;;;;;;;;;5042048;28;20062;-61
2023/06/13 07:10:48;;;;;;;8.68;2.90;;;;;;;;;;5046023;28;20032;-63
2023/06/13 07:13:33;;;;;;;5.40;2.85;;;;;;;;;;5050386;28;20440;-64
2023/06/13 07:16:19;;;;;;;8.82;2.70;;;;;;;;;;5051432;28;20127;-65
2023/06/13 07:19:04;;;;;;;6.07;3.70;;;;;;;;;;5047652;28;20021;-68
2023/06/13 07:21:49;;;;;;;5.30;3.25;;;;;;;;;;5044225;28;20155;-65
2023/06/13 07:24:35;;;;;;;6.50;2.42;;;;;;;;;;5045113;28;20044;-65
2023/06/13 07:27:20;;;;;;;6.80;3.13;;;;;;;;;;5046763;28;20303;-74
2023/06/13 07:30:06;;;;;;;3.47;2.50;;;;;;;;;;5039356;28;20023;-74
2023/06/13 07:32:51;;;;;;;5.53;2.83;;;;;;;;;;5043217;28;20523;-72
2023/06/13 07:35:37;;;;;;;6.25;2.70;;;;;;;;;;5044631;28;20040;-72
2023/06/13 07:38:24;;;;;;;4.65;2.45;;;;;;;;;;5055014;28;20044;-70
2023/06/13 07:41:10;;;;;;;5.78;2.90;;;;;;;;;;5044219;28;20039;-73
2023/06/13 07:43:55;;;;;;;5.47;2.72;;;;;;;;;;5047269;28;20565;-60
2023/06/13 07:46:41;;;;;;;6.65;2.67;;;;;;;;;;5046754;28;20050;-66
2023/06/13 07:49:26;;;;;;;7.28;2.72;;;;;;;;;;5039400;28;20051;-66
2023/06/13 07:52:11;;;;;;;4.32;2.80;;;;;;;;;;5042133;28;20474;-67
2023/06/13 07:54:57;;;;;;;6.90;2.67;;;;;;;;;;5029934;28;20052;-67
2023/06/13 07:57:42;;;;;;;4.60;2.97;;;;;;;;;;5049891;28;20136;-67
2023/06/13 08:00:28;;;;;;;3.50;2.50;;;;;;;;;;5054812;28;20478;-68
2023/06/13 08:03:14;;;;;;;4.25;2.95;;;;;;;;;;5051405;28;20107;-64
2023/06/13 08:06:00;;;;;;;3.38;2.83;;;;;;;;;;5042250;28;20028;-73
2023/06/13 08:08:45;;;;;;;7.72;2.97;;;;;;;;;;5042851;28;20537;-72
2023/06/13 08:11:30;;;;;;;6.75;3.33;;;;;;;;;;5046342;28;20037;-75
2023/06/13 08:14:15;;;;;;;7.47;3.25;;;;;;;;;;5044108;28;20064;-73
2023/06/13 08:17:01;;;;;;;6.20;3.10;;;;;;;;;;5045530;28;20429;-73
2023/06/13 08:19:48;;;;;;;5.78;3.15;;;;;;;;;;5046841;28;20031;-75
2023/06/13 08:22:33;;;;;;;4.55;2.85;;;;;;;;;;5037115;28;20025;-64
2023/06/13 08:25:19;;;;;;;5.75;3.25;;;;;;;;;;5044187;28;20035;-73
2023/06/13 08:28:06;;;;;;;5.53;2.78;;;;;;;;;;5047912;28;20039;-72
2023/06/13 08:30:52;;;;;;;4.70;2.97;;;;;;;;;;5051706;28;20604;-72
2023/06/13 08:33:38;;;;;;;8.18;2.63;;;;;;;;;;5066519;28;20016;-71
2023/06/13 08:36:28;;;;;;;8.15;2.58;;;;;;;;;;5054058;28;20196;-74
2023/06/13 08:39:13;;;;;;;9.05;3.15;;;;;;;;;;5056818;28;20037;-68
2023/06/13 08:41:58;;;;;;;5.45;3.15;;;;;;;;;;5068323;28;20084;-68
2023/06/13 08:44:44;;;;;;;4.55;2.60;;;;;;;;;;5059553;28;20028;-68
2023/06/13 08:47:29;;;;;;;4.35;2.60;;;;;;;;;;5053325;28;20032;-68
2023/06/13 08:50:18;;;;;;;7.43;3.80;;;;;;;;;;5065136;28;20114;-66
2023/06/13 08:53:03;;;;;;;5.38;3.03;;;;;;;;;;5060722;28;20158;-66
2023/06/13 08:55:49;;;;;;;6.25;2.72;;;;;;;;;;5046883;28;20047;-69
2023/06/13 08:58:38;;;;;;;5.80;2.78;;;;;;;;;;5056186;28;20519;-63
2023/06/13 09:01:25;;;;;;;7.97;3.03;;;;;;;;;;5056558;28;20300;-66
2023/06/13 09:04:11;;;;;;;5.85;3.20;;;;;;;;;;5058201;28;20064;-69
2023/06/13 09:06:57;;;;;;;8.23;2.80;;;;;;;;;;5063467;28;20040;-64
2023/06/13 09:09:44;;;;;;;4.68;3.03;;;;;;;;;;5030971;28;20533;-66
2023/06/13 09:12:30;;;;;;;6.60;3.53;;;;;;;;;;5049719;28;20434;-66
2023/06/13 09:15:15;;;;;;;7.70;3.63;;;;;;;;;;5044695;28;20369;-67
2023/06/13 09:18:00;;;;;;;5.40;3.28;;;;;;;;;;5055349;28;20031;-64
2023/06/13 09:20:46;;;;;;;6.32;3.22;;;;;;;;;;5037326;28;20024;-73
2023/06/13 09:23:32;;;;;;;7.20;3.13;;;;;;;;;;5059081;28;20036;-72
2023/06/13 09:26:18;;;;;;;8.35;3.03;;;;;;;;;;5057258;28;20475;-69
2023/06/13 09:29:05;;;;;;;6.10;3.22;;;;;;;;;;5055364;28;20037;-73
2023/06/13 09:31:56;;;;;;;8.10;3.55;;;;;;;;;;5071181;28;20036;-74
2023/06/13 09:34:42;;;;;;;7.45;2.95;;;;;;;;;;5046851;28;20024;-69
2023/06/13 09:37:27;;;;;;;6.30;3.33;;;;;;;;;;5060455;28;20086;-63
2023/06/13 09:40:13;;;;;;;7.10;2.90;;;;;;;;;;5031525;28;20060;-64
2023/06/13 09:43:02;;;;;;;7.60;3.22;;;;;;;;;;5047154;28;20039;-64
2023/06/13 09:45:48;;;;;;;4.63;3.27;;;;;;;;;;5057712;28;20279;-65
2023/06/13 09:48:33;;;;;;;3.67;2.38;;;;;;;;;;5055656;28;20116;-65
2023/06/13 09:51:20;;;;;;;8.93;2.92;;;;;;;;;;5057938;28;20233;-62
2023/06/13 09:54:05;;;;;;;4.32;3.00;;;;;;;;;;5044701;28;20020;-66
2023/06/13 09:56:51;;;;;;;6.55;3.20;;;;;;;;;;5047625;28;20038;-61
2023/06/13 09:59:36;;;;;;;5.15;2.95;;;;;;;;;;5044832;28;20033;-63
2023/06/13 10:02:21;;;;;;;6.07;3.25;;;;;;;;;;5053235;28;20023;-62
2023/06/13 10:05:06;;;;;;;6.35;2.88;;;;;;;;;;5039125;28;20025;-61
2023/06/13 10:07:52;;;;;;;5.35;3.20;;;;;;;;;;5054398;28;20036;-61
2023/06/13 10:10:37;;;;;;;7.07;3.53;;;;;;;;;;5056568;28;20413;-61
2023/06/13 10:13:25;;;;;;;7.50;3.28;;;;;;;;;;5052409;28;20040;-71
2023/06/13 10:16:12;;;;;;;4.75;2.70;;;;;;;;;;5048636;28;20059;-64
2023/06/13 10:18:57;;;;;;;5.25;3.15;;;;;;;;;;5041358;28;20032;-64
2023/06/13 10:21:43;;;;;;;6.63;3.13;;;;;;;;;;5041268;28;20511;-67
2023/06/13 10:24:29;;;;;;;5.80;3.08;;;;;;;;;;5045103;28;20124;-64
2023/06/13 10:27:17;;;;;;;9.05;3.03;;;;;;;;;;5036568;28;20510;-64
2023/06/13 10:30:15;;;;;;;5.78;3.10;;;;;;;;;;5039347;28;20032;-64
2023/06/13 10:33:18;;;;;;;4.32;3.00;;;;;;;;;;5046142;28;20491;-63
2023/06/13 10:36:14;;;;;;;4.25;2.88;;;;;;;;;;5051418;28;20044;-66
2023/06/13 10:39:10;;;;;;;11.32;3.38;;;;;;;;;;5051249;28;20032;-62
2023/06/13 10:42:02;;;;;;;7.15;2.65;;;;;;;;;;5048192;28;20084;-63
2023/06/13 10:45:02;;;;;;;9.15;3.17;;;;;;;;;;5043216;28;20454;-63
2023/06/13 10:47:48;;;;;;;5.38;2.90;;;;;;;;;;5063567;28;20123;-69
2023/06/13 10:50:40;;;;;;;5.43;2.75;;;;;;;;;;5058774;28;20665;-70
2023/06/13 10:53:31;;;;;;;4.88;2.65;;;;;;;;;;5054621;28;20066;-70
2023/06/13 10:56:16;;;;;;;15.95;4.18;;;;;;;;;;5040193;28;20083;-71
2023/06/13 10:59:06;;;;;;;4.63;2.70;;;;;;;;;;5039693;28;20107;-71
2023/06/13 11:01:51;;;;;;;6.38;2.97;;;;;;;;;;5040772;28;20261;-70
2023/06/13 11:04:38;;;;;;;4.97;2.50;;;;;;;;;;5046986;28;20046;-67
2023/06/13 11:07:24;;;;;;;9.30;3.20;;;;;;;;;;5039364;28;20037;-69
2023/06/13 11:10:12;;;;;;;6.35;2.95;;;;;;;;;;5046751;28;20107;-68
2023/06/13 11:13:02;;;;;;;4.45;2.42;;;;;;;;;;5044531;28;20077;-68
2023/06/13 11:15:48;;;;;;;4.80;2.80;;;;;;;;;;5048367;28;20083;-69
2023/06/13 11:18:33;;;;;;;5.53;3.03;;;;;;;;;;5045962;28;20360;-68
2023/06/13 11:21:18;;;;;;;5.60;2.65;;;;;;;;;;5042326;28;20116;-70
2023/06/13 11:24:04;;;;;;;6.47;2.92;;;;;;;;;;5048751;28;20040;-61
2023/06/13 11:26:49;;;;;;;6.78;3.28;;;;;;;;;;5047956;28;20370;-67
2023/06/13 11:29:37;;;;;;;7.80;2.83;;;;;;;;;;5051652;28;20494;-69
2023/06/13 11:32:23;;;;;;;3.80;2.50;;;;;;;;;;5051486;28;20085;-68
2023/06/13 11:35:09;;;;;;;5.38;2.63;;;;;;;;;;5046800;28;20090;-68
2023/06/13 11:37:56;;;;;;;3.70;2.53;;;;;;;;;;5052118;28;20059;-71
2023/06/13 11:40:44;;;;;;;4.65;3.10;;;;;;;;;;5040664;28;20169;-73
2023/06/13 11:43:29;;;;;;;7.38;3.40;;;;;;;;;;5045445;28;20036;-62
2023/06/13 11:46:14;;;;;;;8.60;3.13;;;;;;;;;;5043588;28;20036;-65
2023/06/13 11:48:59;;;;;;;6.88;3.15;;;;;;;;;;5045403;28;20028;-66
2023/06/13 11:51:45;;;;;;;8.60;3.05;;;;;;;;;;5058402;28;20040;-69
2023/06/13 11:54:30;;;;;;;7.97;3.22;;;;;;;;;;5045222;28;20825;-70
2023/06/13 11:57:16;;;;;;;9.05;3.00;;;;;;;;;;5035450;28;20025;-72
2023/06/13 12:00:03;;;;;;;5.78;2.92;;;;;;;;;;5038018;28;20021;-67
2023/06/13 12:02:48;;;;;;;12.35;2.97;;;;;;;;;;5040259;28;20025;-74
2023/06/13 12:05:34;;;;;;;5.60;3.13;;;;;;;;;;5044254;28;20391;-73
2023/06/13 12:08:21;;;;;;;6.20;2.88;;;;;;;;;;5041149;28;20036;-73
2023/06/13 12:11:06;;;;;;;5.20;3.42;;;;;;;;;;5051042;28;20032;-73
2023/06/13 12:13:55;;;;;;;6.65;3.20;;;;;;;;;;5067816;28;20399;-73
2023/06/13 12:16:40;;;;;;;7.45;3.17;;;;;;;;;;5046842;28;20394;-76
2023/06/13 12:19:25;;;;;;;4.85;2.83;;;;;;;;;;5058307;28;20101;-68
2023/06/13 12:22:13;;;;;;;5.95;3.38;;;;;;;;;;5043542;28;20029;-71
2023/06/13 12:24:58;;;;;;;5.47;3.05;;;;;;;;;;5050514;28;20089;-65
2023/06/13 12:27:44;;;;;;;6.72;3.33;;;;;;;;;;5059540;28;20032;-66
2023/06/13 12:30:39;;;;;;;5.28;2.90;;;;;;;;;;5056614;28;20104;-66
2023/06/13 12:33:27;;;;;;;7.60;2.75;;;;;;;;;;5047406;28;20033;-66
2023/06/13 12:36:14;;;;;;;7.75;3.63;;;;;;;;;;5050264;28;20040;-67
2023/06/13 12:38:59;;;;;;;6.32;3.13;;;;;;;;;;5045900;28;20139;-77
2023/06/13 12:41:49;;;;;;;9.82;3.25;;;;;;;;;;5049050;28;20407;-76
2023/06/13 12:44:34;;;;;;;;;;;;;;;;;;5064048;28;20036;-75
2023/06/13 12:47:20;;;;;;;4.85;2.63;;;;;;;;;;5048545;28;19917;-75
2023/06/13 12:50:06;;;;;;;7.72;3.65;;;;;;;;;;5043157;28;20036;-77
2023/06/13 12:53:07;;;;;;;10.65;3.67;;;;;;;;;;5051964;28;20025;-72
2023/06/13 12:55:53;;;;;;;7.47;3.42;;;;;;;;;;5058636;28;20024;-68
2023/06/13 12:58:38;;;;;;;4.68;2.97;;;;;;;;;;5049740;28;20041;-64
2023/06/13 13:01:23;;;;;;;13.02;3.63;;;;;;;;;;5041359;28;20067;-70
2023/06/13 13:04:12;;;;;;;7.82;3.05;;;;;;;;;;5048309;28;20588;-70
2023/06/13 13:06:57;;;;;;;6.27;3.07;;;;;;;;;;5049255;28;20040;-70
2023/06/13 13:09:43;;;;;;;7.63;3.10;;;;;;;;;;5048377;28;20360;-70
2023/06/13 13:12:29;;;;;;;9.95;4.38;;;;;;;;;;5062410;28;20070;-70
2023/06/13 13:15:16;;;;;;;9.05;2.88;;;;;;;;;;5050496;28;20086;-66
2023/06/13 13:18:01;;;;;;;4.30;3.15;;;;;;;;;;5050486;28;20024;-66
2023/06/13 13:20:46;;;;;;;5.07;2.92;;;;;;;;;;5047924;28;20055;-65
2023/06/13 13:23:32;;;;;;;7.40;3.42;;;;;;;;;;5048251;28;20363;-66
2023/06/13 13:26:17;;;;;;;7.85;3.90;;;;;;;;;;5044208;28;20028;-66
2023/06/13 13:29:03;;;;;;;10.07;3.80;;;;;;;;;;5047639;28;20029;-67
2023/06/13 13:31:48;;;;;;;7.95;3.10;;;;;;;;;;5047167;28;20048;-67
2023/06/13 13:34:33;;;;;;;4.55;3.20;;;;;;;;;;5044370;28;20044;-70
2023/06/13 13:37:18;;;;;;;4.75;2.90;;;;;;;;;;5044578;28;20033;-66
2023/06/13 13:40:04;;;;;;;6.78;3.85;;;;;;;;;;5047673;28;20031;-65
2023/06/13 13:42:50;;;;;;;6.20;3.53;;;;;;;;;;5048406;28;20033;-65
2023/06/13 13:45:35;;;;;;;5.95;3.47;;;;;;;;;;5042702;28;20035;-69
2023/06/13 13:48:21;;;;;;;7.93;2.80;;;;;;;;;;5047756;28;20028;-69
2023/06/13 13:51:06;;;;;;;6.32;3.47;;;;;;;;;;5048203;28;20025;-74
2023/06/13 13:53:52;;;;;;;6.20;3.60;;;;;;;;;;5034179;28;20033;-69
2023/06/13 13:56:37;;;;;;;6.65;4.07;;;;;;;;;;5041827;28;20064;-75
2023/06/13 13:59:23;;;;;;;7.68;3.20;;;;;;;;;;5044891;28;20091;-75
2023/06/13 14:02:08;;;;;;;5.55;3.35;;;;;;;;;;5049667;28;20112;-74
2023/06/13 14:04:53;;;;;;;7.32;3.80;;;;;;;;;;5044552;28;20176;-74
2023/06/13 14:07:38;;;;;;;17.33;3.60;;;;;;;;;;5049360;28;20475;-74
2023/06/13 14:10:24;;;;;;;8.65;3.72;;;;;;;;;;5057249;28;20024;-74
2023/06/13 14:13:09;;;;;;;9.15;4.07;;;;;;;;;;5030722;28;20028;-74
2023/06/13 14:15:57;;;;;;;5.75;3.40;;;;;;;;;;5039481;28;20040;-76
2023/06/13 14:18:42;;;;;;;11.00;3.63;;;;;;;;;;5053414;28;20514;-75
2023/06/13 14:21:27;;;;;;;5.85;3.30;;;;;;;;;;5049997;28;20078;-74
2023/06/13 14:24:13;;;;;;;7.47;3.58;;;;;;;;;;5026707;28;20561;-75
2023/06/13 14:26:58;;;;;;;8.05;3.65;;;;;;;;;;5053296;28;20029;-72
2023/06/13 14:29:43;;;;;;;4.75;3.50;;;;;;;;;;5036587;28;20036;-66
2023/06/13 14:32:28;;;;;;;7.00;3.25;;;;;;;;;;5042949;28;20049;-68
2023/06/13 14:35:15;;;;;;;5.55;3.17;;;;;;;;;;5049562;28;20028;-68
2023/06/13 14:38:01;;;;;;;8.23;3.63;;;;;;;;;;5049347;28;20055;-67
2023/06/13 14:40:46;;;;;;;6.22;2.92;;;;;;;;;;5053927;28;20037;-66
2023/06/13 14:43:31;;;;;;;7.97;3.35;;;;;;;;;;5047834;28;20025;-66
2023/06/13 14:46:16;;;;;;;5.97;3.90;;;;;;;;;;5045589;28;20040;-72
2023/06/13 14:49:02;;;;;;;4.00;2.83;;;;;;;;;;5047682;28;20028;-70
2023/06/13 14:51:47;;;;;;;5.65;4.03;;;;;;;;;;5046580;28;20428;-74
2023/06/13 14:54:32;;;;;;;6.50;3.63;;;;;;;;;;5049947;28;20085;-73
2023/06/13 14:57:17;;;;;;;5.40;3.60;;;;;;;;;;5053519;28;20032;-74
2023/06/13 15:00:05;;;;;;;7.80;3.83;;;;;;;;;;5044343;28;20035;-76
2023/06/13 15:02:51;;;;;;;5.55;3.33;;;;;;;;;;5043085;28;20502;-74
2023/06/13 15:05:37;;;;;;;7.05;4.07;;;;;;;;;;5053243;28;20115;-78
2023/06/13 15:08:22;;;;;;;7.38;3.60;;;;;;;;;;5061023;28;20037;-68
2023/06/13 15:11:10;;;;;;;6.25;3.55;;;;;;;;;;5044177;28;20040;-68
2023/06/13 15:13:55;;;;;;;6.00;3.55;;;;;;;;;;5051722;28;20470;-68
2023/06/13 15:16:41;;;;;;;4.72;3.25;;;;;;;;;;5036802;28;20025;-69
2023/06/13 15:19:26;;;;;;;9.82;4.00;;;;;;;;;;5049897;28;20028;-66
2023/06/13 15:22:11;;;;;;;6.80;3.92;;;;;;;;;;5048972;28;20059;-68
2023/06/13 15:24:58;;;;;;;6.22;3.65;;;;;;;;;;5034878;28;20616;-67
2023/06/13 15:27:43;;;;;;;6.45;2.97;;;;;;;;;;5046147;28;20028;-71
2023/06/13 15:30:29;;;;;;;7.88;3.78;;;;;;;;;;5036333;28;20028;-72
2023/06/13 15:33:15;;;;;;;4.68;3.03;;;;;;;;;;5048724;28;20092;-71
2023/06/13 15:36:02;;;;;;;8.50;3.88;;;;;;;;;;5053925;28;20085;-71
2023/06/13 15:38:48;;;;;;;9.13;3.45;;;;;;;;;;5066316;28;20059;-70
2023/06/13 15:41:33;;;;;;;6.88;3.13;;;;;;;;;;5049205;28;20040;-70
2023/06/13 15:44:18;;;;;;;6.90;3.72;;;;;;;;;;5043563;28;20083;-75
2023/06/13 15:47:04;;;;;;;7.28;2.85;;;;;;;;;;5048553;28;20383;-66
2023/06/13 15:49:49;;;;;;;8.55;3.50;;;;;;;;;;5053553;28;20059;-68
2023/06/13 15:52:34;;;;;;;9.07;3.58;;;;;;;;;;5052338;28;20035;-67
2023/06/13 15:55:20;;;;;;;4.35;2.90;;;;;;;;;;5050672;28;20082;-67
2023/06/13 15:58:06;;;;;;;5.65;3.03;;;;;;;;;;5057077;28;20024;-67
2023/06/13 16:00:51;;;;;;;7.22;3.53;;;;;;;;;;5046179;28;20040;-68
2023/06/13 16:03:36;;;;;;;5.53;3.08;;;;;;;;;;5051737;28;20040;-79
2023/06/13 16:06:21;;;;;;;7.05;3.03;;;;;;;;;;5043329;28;20033;-79
2023/06/13 16:09:07;;;;;;;8.32;3.50;;;;;;;;;;5052395;28;20064;-79
2023/06/13 16:11:52;;;;;;;4.55;3.08;;;;;;;;;;5049567;28;20033;-79
2023/06/13 16:14:37;;;;;;;3.90;3.22;;;;;;;;;;5043497;28;20519;-78
2023/06/13 16:17:22;;;;;;;6.28;3.13;;;;;;;;;;5041135;28;20036;-79
2023/06/13 16:20:08;;;;;;;6.72;4.00;;;;;;;;;;5044825;28;20484;-67
2023/06/13 16:22:53;;;;;;;4.50;3.15;;;;;;;;;;5034059;28;20047;-62
2023/06/13 16:25:38;;;;;;;5.53;2.72;;;;;;;;;;5038088;28;20427;-62
2023/06/13 16:28:23;;;;;;;9.73;3.78;;;;;;;;;;5054311;28;20031;-61
2023/06/13 16:31:08;;;;;;;7.38;3.90;;;;;;;;;;5041100;28;20028;-60
2023/06/13 16:33:54;;;;;;;4.82;2.95;;;;;;;;;;5049798;28;20042;-62
2023/06/13 16:36:39;;;;;;;8.45;3.45;;;;;;;;;;5041218;28;20033;-66